createdAt,value
2017-09-19T00:00:40.250Z,10.60
2017-09-19T00:03:08.410Z,10.60
2017-09-19T00:05:36.501Z,10.60
2017-09-19T00:08:06.194Z,10.60
2017-09-19T00:10:34.366Z,10.70
2017-09-19T00:13:02.543Z,10.70
2017-09-19T00:15:30.618Z,10.70
2017-09-19T00:17:58.786Z,10.70
2017-09-19T00:20:27.265Z,10.70
2017-09-19T00:22:55.441Z,10.70
2017-09-19T00:25:23.514Z,10.80
2017-09-19T00:27:51.618Z,10.80
2017-09-19T00:30:19.762Z,10.90
2017-09-19T00:32:47.934Z,10.80
2017-09-19T00:35:16.422Z,10.70
2017-09-19T00:37:45.718Z,10.70
2017-09-19T00:40:13.886Z,10.70
2017-09-19T00:42:41.954Z,10.80
2017-09-19T00:45:10.041Z,10.80
2017-09-19T00:47:38.114Z,10.90
2017-09-19T00:50:06.278Z,10.80
2017-09-19T00:52:34.454Z,10.80
2017-09-19T00:55:02.649Z,10.60
2017-09-19T00:57:30.801Z,10.70
2017-09-19T00:59:58.970Z,10.60
2017-09-19T01:02:27.062Z,10.60
2017-09-19T01:04:55.218Z,10.50
2017-09-19T01:07:23.393Z,10.50
2017-09-19T01:09:51.469Z,10.40
2017-09-19T01:12:19.589Z,10.30
2017-09-19T01:14:48.425Z,10.30
2017-09-19T01:17:16.610Z,10.20
2017-09-19T01:19:44.782Z,10.20
2017-09-19T01:22:12.958Z,10.10
2017-09-19T01:24:41.851Z,10.10
2017-09-19T01:27:09.943Z,10.10
2017-09-19T01:29:38.018Z,10.10
2017-09-19T01:32:06.883Z,10.10
2017-09-19T01:34:35.366Z,10.10
2017-09-19T01:37:03.547Z,10.10
2017-09-19T01:39:32.052Z,10.10
2017-09-19T01:42:00.119Z,10.10
2017-09-19T01:44:28.203Z,10.10
2017-09-19T01:46:56.671Z,10.10
2017-09-19T01:49:24.819Z,10.10
2017-09-19T01:51:52.894Z,10.10
2017-09-19T01:54:21.474Z,10.10
2017-09-19T01:56:49.650Z,10.20
2017-09-19T01:59:17.727Z,10.20
2017-09-19T02:01:45.807Z,10.20
2017-09-19T02:04:13.975Z,10.20
2017-09-19T02:06:42.142Z,10.20
2017-09-19T02:09:10.314Z,10.30
2017-09-19T02:11:39.158Z,10.30
2017-09-19T02:14:07.283Z,10.20
2017-09-19T02:16:35.455Z,10.10
2017-09-19T02:19:03.755Z,10.10
2017-09-19T02:21:31.898Z,10.10
2017-09-19T02:24:00.078Z,10.10
2017-09-19T02:26:28.256Z,10.10
2017-09-19T02:28:56.734Z,10.30
2017-09-19T02:31:24.815Z,10.30
2017-09-19T02:33:52.983Z,10.30
2017-09-19T02:36:21.158Z,10.30
2017-09-19T02:38:49.263Z,10.40
2017-09-19T02:41:18.218Z,10.40
2017-09-19T02:43:46.802Z,10.40
2017-09-19T02:46:14.978Z,10.40
2017-09-19T02:48:43.164Z,10.30
2017-09-19T02:51:11.739Z,10.20
2017-09-19T02:53:39.819Z,11.70
2017-09-19T02:56:07.915Z,10.10
2017-09-19T02:58:36.780Z,10.10
2017-09-19T03:01:04.946Z,10.00
2017-09-19T03:03:33.023Z,10.00
2017-09-19T03:06:01.555Z,10.00
2017-09-19T03:08:29.638Z,10.00
2017-09-19T03:10:58.158Z,10.10
2017-09-19T03:13:26.334Z,10.30
2017-09-19T03:15:54.406Z,10.30
2017-09-19T03:18:22.577Z,10.30
2017-09-19T03:20:50.750Z,10.40
2017-09-19T03:23:19.227Z,10.50
2017-09-19T03:25:47.406Z,10.40
2017-09-19T03:28:15.583Z,10.30
2017-09-19T03:30:43.751Z,10.20
2017-09-19T03:33:11.932Z,10.20
2017-09-19T03:35:40.011Z,10.20
2017-09-19T03:38:08.174Z,10.30
2017-09-19T03:40:36.250Z,10.40
2017-09-19T03:43:04.422Z,10.50
2017-09-19T03:45:32.595Z,10.40
2017-09-19T03:48:00.775Z,10.50
2017-09-19T03:50:28.875Z,10.50
2017-09-19T03:52:57.718Z,10.50
2017-09-19T03:55:25.799Z,10.40
2017-09-19T03:57:53.982Z,10.40
2017-09-19T04:00:22.474Z,10.40
2017-09-19T04:02:50.639Z,10.40
2017-09-19T04:05:18.710Z,10.40
2017-09-19T04:07:46.888Z,10.40
2017-09-19T04:10:15.054Z,10.30
2017-09-19T04:12:43.226Z,10.40
2017-09-19T04:15:11.331Z,10.30
2017-09-19T04:17:39.431Z,10.30
2017-09-19T04:20:07.546Z,10.20
2017-09-19T04:22:36.130Z,10.10
2017-09-19T04:25:04.639Z,10.10
2017-09-19T04:27:32.738Z,10.10
2017-09-19T04:30:02.342Z,10.20
2017-09-19T04:32:31.185Z,10.10
2017-09-19T04:34:59.355Z,10.20
2017-09-19T04:37:27.962Z,10.10
2017-09-19T04:39:56.447Z,10.20
2017-09-19T04:42:24.518Z,10.30
2017-09-19T04:44:52.615Z,10.20
2017-09-19T04:47:21.466Z,10.30
2017-09-19T04:49:50.338Z,10.40
2017-09-19T04:52:18.526Z,10.40
2017-09-19T04:54:46.699Z,10.30
2017-09-19T04:57:15.278Z,10.20
2017-09-19T04:59:43.362Z,10.20
2017-09-19T05:02:11.462Z,10.10
2017-09-19T05:04:40.311Z,10.10
2017-09-19T05:07:08.422Z,10.60
2017-09-19T05:09:37.261Z,10.80
2017-09-19T05:12:05.336Z,11.00
2017-09-19T05:14:33.467Z,11.00
2017-09-19T05:17:02.330Z,11.20
2017-09-19T05:19:30.803Z,11.30
2017-09-19T05:21:59.295Z,11.40
2017-09-19T05:24:27.455Z,11.30
2017-09-19T05:26:56.039Z,11.60
2017-09-19T05:29:24.206Z,11.60
2017-09-19T05:31:52.389Z,11.70
2017-09-19T05:34:20.483Z,11.80
2017-09-19T05:36:49.038Z,11.90
2017-09-19T05:39:17.130Z,11.60
2017-09-19T05:41:45.211Z,11.30
2017-09-19T05:44:13.300Z,11.00
2017-09-19T05:46:42.154Z,10.90
2017-09-19T05:51:40.350Z,10.70
2017-09-19T05:54:10.036Z,10.60
2017-09-19T05:56:38.111Z,10.70
2017-09-19T05:59:06.191Z,10.70
2017-09-19T06:01:34.271Z,10.70
2017-09-19T06:04:02.362Z,10.80
2017-09-19T06:06:30.434Z,10.70
2017-09-19T06:09:10.498Z,10.70
2017-09-19T06:11:39.347Z,10.80
2017-09-19T06:14:08.186Z,10.80
2017-09-19T06:16:37.051Z,10.90
2017-09-19T06:19:05.123Z,10.90
2017-09-19T06:21:33.195Z,10.90
2017-09-19T06:24:01.691Z,10.90
2017-09-19T06:26:30.531Z,10.90
2017-09-19T06:28:58.605Z,10.90
2017-09-19T06:31:26.711Z,10.90
2017-09-19T06:33:54.802Z,11.00
2017-09-19T06:36:23.638Z,11.00
2017-09-19T06:38:51.738Z,11.10
2017-09-19T06:41:19.819Z,11.20
2017-09-19T06:43:47.898Z,11.20
2017-09-19T06:46:16.399Z,11.40
2017-09-19T06:48:45.246Z,11.40
2017-09-19T06:51:13.319Z,11.40
2017-09-19T06:53:41.410Z,11.40
2017-09-19T06:56:09.502Z,11.50
2017-09-19T06:58:38.339Z,11.60
2017-09-19T07:01:06.439Z,11.60
2017-09-19T07:03:34.515Z,11.60
2017-09-19T07:06:02.590Z,11.50
2017-09-19T07:08:30.690Z,11.50
2017-09-19T07:10:58.772Z,11.50
2017-09-19T07:13:26.850Z,11.50
2017-09-19T07:15:54.951Z,11.60
2017-09-19T07:18:23.026Z,11.60
2017-09-19T07:20:51.891Z,11.70
2017-09-19T07:23:19.966Z,11.80
2017-09-19T07:25:48.073Z,11.90
2017-09-19T07:28:16.142Z,12.00
2017-09-19T07:30:44.214Z,12.00
2017-09-19T07:33:12.306Z,12.20
2017-09-19T07:35:40.403Z,12.40
2017-09-19T07:38:08.494Z,12.40
2017-09-19T07:40:37.707Z,12.40
2017-09-19T07:43:05.799Z,12.40
2017-09-19T07:45:33.870Z,12.50
2017-09-19T07:48:01.971Z,12.50
2017-09-19T07:50:30.822Z,12.60
2017-09-19T07:52:58.898Z,12.70
2017-09-19T07:55:26.994Z,12.70
2017-09-19T07:57:55.075Z,12.90
2017-09-19T08:00:23.174Z,13.10
2017-09-19T08:02:51.643Z,13.50
2017-09-19T08:05:20.483Z,13.80
2017-09-19T08:07:48.591Z,14.10
2017-09-19T08:10:17.434Z,14.40
2017-09-19T08:12:45.506Z,14.40
2017-09-19T08:15:13.598Z,14.30
2017-09-19T08:17:42.072Z,14.60
2017-09-19T08:20:10.158Z,14.50
2017-09-19T08:22:38.262Z,14.40
2017-09-19T08:25:06.735Z,14.60
2017-09-19T08:27:35.619Z,14.60
2017-09-19T08:30:03.710Z,14.80
2017-09-19T08:32:32.550Z,15.00
2017-09-19T08:35:00.642Z,15.40
2017-09-19T08:37:28.742Z,15.30
2017-09-19T08:39:57.587Z,15.70
2017-09-19T08:42:25.659Z,15.70
2017-09-19T08:44:53.755Z,15.90
2017-09-19T08:47:22.226Z,16.10
2017-09-19T08:49:50.730Z,16.40
2017-09-19T08:52:19.574Z,16.60
2017-09-19T08:54:47.647Z,16.40
2017-09-19T08:57:15.748Z,16.30
2017-09-19T08:59:43.818Z,16.10
2017-09-19T09:02:11.922Z,16.30
2017-09-19T09:04:40.763Z,16.60
2017-09-19T09:07:08.835Z,16.60
2017-09-19T09:09:36.931Z,16.70
2017-09-19T09:12:05.025Z,16.80
2017-09-19T09:14:33.886Z,17.00
2017-09-19T09:17:01.959Z,17.30
2017-09-19T09:19:30.072Z,17.60
2017-09-19T09:21:58.540Z,17.30
2017-09-19T09:24:27.378Z,17.00
2017-09-19T09:26:55.483Z,17.10
2017-09-19T09:29:23.558Z,17.60
2017-09-19T09:31:51.639Z,18.50
2017-09-19T09:34:20.515Z,18.70
2017-09-19T09:36:48.982Z,18.70
2017-09-19T09:39:17.054Z,19.50
2017-09-19T09:41:45.156Z,20.10
2017-09-19T09:44:13.622Z,19.40
2017-09-19T09:46:41.700Z,18.80
2017-09-19T09:49:09.795Z,19.10
2017-09-19T09:51:38.655Z,19.30
2017-09-19T09:54:06.759Z,19.80
2017-09-19T09:56:34.836Z,20.30
2017-09-19T09:59:03.304Z,20.30
2017-09-19T10:01:32.162Z,20.40
2017-09-19T10:04:00.243Z,20.30
2017-09-19T10:06:28.344Z,21.00
2017-09-19T10:08:57.182Z,21.70
2017-09-19T10:11:25.258Z,22.30
2017-09-19T10:13:53.363Z,22.00
2017-09-19T10:16:21.830Z,21.20
2017-09-19T10:18:49.906Z,20.50
2017-09-19T10:21:18.003Z,20.50
2017-09-19T10:23:46.505Z,19.50
2017-09-19T10:26:14.979Z,18.90
2017-09-19T10:28:43.063Z,18.90
2017-09-19T10:31:11.156Z,18.10
2017-09-19T10:33:39.228Z,17.60
2017-09-19T10:36:07.319Z,17.20
2017-09-19T10:38:35.406Z,16.70
2017-09-19T10:41:03.499Z,16.40
2017-09-19T10:43:32.372Z,16.00
2017-09-19T10:46:00.450Z,15.80
2017-09-19T10:48:29.294Z,15.70
2017-09-19T10:50:57.374Z,15.40
2017-09-19T10:53:25.879Z,15.40
2017-09-19T10:55:53.951Z,15.30
2017-09-19T10:58:22.043Z,15.40
2017-09-19T11:00:50.882Z,15.40
2017-09-19T11:03:18.974Z,15.30
2017-09-19T11:05:47.447Z,15.30
2017-09-19T11:08:15.546Z,15.20
2017-09-19T11:10:43.646Z,15.20
2017-09-19T11:13:11.718Z,15.40
2017-09-19T11:15:39.794Z,15.60
2017-09-19T11:18:08.655Z,15.80
2017-09-19T11:20:36.725Z,16.30
2017-09-19T11:23:04.836Z,17.40
2017-09-19T11:25:32.907Z,19.00
2017-09-19T11:28:01.379Z,20.10
2017-09-19T11:30:29.487Z,20.60
2017-09-19T11:32:57.559Z,20.10
2017-09-19T11:35:25.639Z,19.40
2017-09-19T11:37:53.751Z,19.50
2017-09-19T11:40:22.588Z,19.90
2017-09-19T11:42:50.659Z,21.00
2017-09-19T11:45:18.751Z,22.60
2017-09-19T11:47:46.843Z,23.50
2017-09-19T11:50:14.922Z,22.70
2017-09-19T11:52:43.027Z,22.40
2017-09-19T11:55:11.099Z,21.30
2017-09-19T11:57:39.180Z,20.70
2017-09-19T12:00:07.279Z,19.90
2017-09-19T12:02:36.114Z,19.50
2017-09-19T12:05:04.967Z,19.10
2017-09-19T12:07:33.058Z,19.10
2017-09-19T12:10:01.526Z,19.90
2017-09-19T12:12:29.618Z,21.60
2017-09-19T12:14:58.462Z,23.60
2017-09-19T12:17:26.550Z,24.50
2017-09-19T12:19:54.644Z,25.70
2017-09-19T12:22:22.714Z,25.10
2017-09-19T12:24:50.806Z,25.10
2017-09-19T12:27:19.650Z,22.50
2017-09-19T12:29:47.754Z,21.30
2017-09-19T12:32:15.865Z,20.80
2017-09-19T12:34:43.901Z,20.10
2017-09-19T12:37:11.994Z,19.20
2017-09-19T12:39:40.066Z,19.10
2017-09-19T12:42:08.931Z,18.10
2017-09-19T12:44:36.998Z,17.70
2017-09-19T12:47:05.103Z,17.50
2017-09-19T12:49:33.174Z,17.70
2017-09-19T12:52:01.647Z,18.30
2017-09-19T12:54:30.515Z,18.30
2017-09-19T12:56:58.595Z,19.00
2017-09-19T12:59:26.667Z,18.90
2017-09-19T13:01:54.781Z,19.40
2017-09-19T13:04:22.850Z,19.00
2017-09-19T13:06:50.927Z,18.90
2017-09-19T13:09:19.023Z,19.10
2017-09-19T13:11:47.098Z,19.00
2017-09-19T13:14:15.190Z,18.60
2017-09-19T13:16:43.263Z,18.60
2017-09-19T13:19:11.762Z,18.20
2017-09-19T13:21:40.611Z,18.40
2017-09-19T13:24:08.682Z,20.80
2017-09-19T13:26:36.775Z,22.80
2017-09-19T13:29:04.851Z,24.00
2017-09-19T13:31:44.923Z,24.80
2017-09-19T13:34:13.762Z,25.50
2017-09-19T13:36:41.834Z,25.10
2017-09-19T13:39:09.934Z,24.80
2017-09-19T13:41:38.007Z,23.20
2017-09-19T13:44:06.080Z,23.10
2017-09-19T13:46:34.183Z,21.60
2017-09-19T13:49:03.043Z,19.80
2017-09-19T13:51:31.114Z,20.00
2017-09-19T13:53:59.215Z,22.00
2017-09-19T13:56:28.075Z,24.20
2017-09-19T13:58:56.150Z,24.30
2017-09-19T14:01:24.247Z,24.40
2017-09-19T14:03:53.115Z,25.50
2017-09-19T14:06:21.221Z,25.50
2017-09-19T14:08:51.594Z,27.00
2017-09-19T14:11:20.091Z,27.60
2017-09-19T14:13:48.566Z,25.60
2017-09-19T14:16:16.635Z,25.40
2017-09-19T14:18:45.130Z,25.10
2017-09-19T14:21:13.203Z,23.20
2017-09-19T14:23:41.671Z,21.40
2017-09-19T14:26:09.762Z,20.20
2017-09-19T14:28:37.834Z,19.60
2017-09-19T14:31:05.922Z,18.80
2017-09-19T14:33:34.390Z,17.80
2017-09-19T14:36:03.271Z,17.00
2017-09-19T14:38:31.341Z,16.50
2017-09-19T14:40:59.414Z,15.70
2017-09-19T14:43:27.506Z,15.30
2017-09-19T14:45:56.347Z,15.00
2017-09-19T14:48:24.459Z,14.60
2017-09-19T14:50:52.530Z,14.50
2017-09-19T14:55:49.960Z,14.20
2017-09-19T14:58:18.105Z,14.20
2017-09-19T15:03:16.286Z,14.10
2017-09-19T15:05:45.154Z,14.10
2017-09-19T15:08:13.231Z,13.90
2017-09-19T15:10:41.698Z,13.80
2017-09-19T15:13:09.807Z,13.80
2017-09-19T15:15:37.882Z,13.80
2017-09-19T15:18:05.958Z,13.90
2017-09-19T15:20:34.055Z,13.90
2017-09-19T15:23:02.161Z,14.00
2017-09-19T15:25:30.246Z,14.10
2017-09-19T15:27:58.338Z,14.00
2017-09-19T15:30:27.199Z,14.00
2017-09-19T15:32:55.283Z,13.90
2017-09-19T15:35:23.790Z,14.00
2017-09-19T15:37:51.867Z,14.20
2017-09-19T15:40:19.942Z,14.50
2017-09-19T15:42:48.059Z,16.20
2017-09-19T15:45:16.131Z,18.20
2017-09-19T15:47:44.965Z,19.60
2017-09-19T15:50:13.839Z,20.10
2017-09-19T15:52:42.684Z,19.20
2017-09-19T15:55:11.523Z,18.10
2017-09-19T15:57:40.395Z,17.20
2017-09-19T16:00:08.479Z,16.40
2017-09-19T16:02:36.550Z,15.80
2017-09-19T16:05:05.410Z,15.70
2017-09-19T16:07:33.490Z,16.20
2017-09-19T16:10:01.639Z,16.40
2017-09-19T16:12:30.442Z,16.20
2017-09-19T16:14:58.523Z,15.80
2017-09-19T16:17:26.636Z,15.60
2017-09-19T16:19:55.479Z,15.30
2017-09-19T16:22:23.550Z,15.20
2017-09-19T16:24:51.642Z,14.90
2017-09-19T16:27:19.747Z,14.80
2017-09-19T16:29:48.587Z,14.70
2017-09-19T16:32:16.721Z,14.60
2017-09-19T16:34:44.795Z,14.50
2017-09-19T16:37:12.871Z,14.50
2017-09-19T16:39:42.114Z,14.40
2017-09-19T16:42:10.187Z,14.30
2017-09-19T16:44:38.674Z,14.30
2017-09-19T16:47:06.751Z,14.20
2017-09-19T16:49:34.862Z,14.20
2017-09-19T16:52:02.947Z,14.10
2017-09-19T16:54:31.058Z,14.00
2017-09-19T16:56:59.157Z,14.00
2017-09-19T16:59:28.003Z,14.00
2017-09-19T17:01:56.502Z,14.00
2017-09-19T17:04:24.574Z,14.00
2017-09-19T17:06:52.666Z,13.90
2017-09-19T17:09:21.570Z,13.90
2017-09-19T17:11:50.423Z,13.80
2017-09-19T17:14:18.498Z,13.80
2017-09-19T17:16:46.623Z,13.80
2017-09-19T17:19:15.463Z,13.90
2017-09-19T17:21:43.571Z,13.80
2017-09-19T17:24:12.414Z,13.90
2017-09-19T17:26:40.506Z,13.80
2017-09-19T17:29:08.606Z,13.80
2017-09-19T17:31:37.446Z,13.80
2017-09-19T17:34:05.553Z,13.70
2017-09-19T17:36:34.405Z,13.70
2017-09-19T17:39:03.260Z,13.60
2017-09-19T17:41:31.360Z,13.60
2017-09-19T17:43:59.435Z,13.70
2017-09-19T17:46:27.534Z,13.60
2017-09-19T17:48:55.611Z,13.50
2017-09-19T17:51:23.686Z,13.60
2017-09-19T17:53:51.795Z,13.60
2017-09-19T17:56:19.874Z,13.50
2017-09-19T17:58:47.954Z,13.50
2017-09-19T18:01:16.047Z,13.60
2017-09-19T18:03:44.135Z,13.60
2017-09-19T18:06:12.241Z,13.50
2017-09-19T18:08:41.091Z,13.50
2017-09-19T18:11:09.172Z,13.50
2017-09-19T18:13:37.311Z,13.50
2017-09-19T18:16:05.387Z,13.30
2017-09-19T18:18:33.491Z,13.30
2017-09-19T18:21:03.074Z,13.30
2017-09-19T18:23:31.154Z,13.30
2017-09-19T18:25:59.263Z,13.30
2017-09-19T18:28:28.106Z,13.20
2017-09-19T18:30:56.615Z,13.20
2017-09-19T18:33:24.757Z,13.10
2017-09-19T18:35:52.854Z,13.10
2017-09-19T18:38:20.934Z,13.10
2017-09-19T18:40:49.046Z,13.10
2017-09-19T18:43:17.139Z,13.10
2017-09-19T18:45:45.230Z,13.10
2017-09-19T18:48:14.111Z,13.10
2017-09-19T18:50:42.199Z,13.10
2017-09-19T18:53:11.795Z,13.10
2017-09-19T18:55:39.903Z,13.10
2017-09-19T18:58:08.754Z,13.10
2017-09-19T19:00:36.855Z,13.00
2017-09-19T19:03:04.974Z,13.00
2017-09-19T19:05:33.062Z,13.10
2017-09-19T19:08:02.290Z,13.00
2017-09-19T19:10:30.402Z,13.00
2017-09-19T19:12:58.490Z,12.90
2017-09-19T19:15:26.587Z,13.00
2017-09-19T19:17:54.798Z,12.90
2017-09-19T19:20:22.919Z,12.90
2017-09-19T19:22:52.144Z,12.90
2017-09-19T19:25:20.226Z,12.80
2017-09-19T19:27:48.340Z,12.80
2017-09-19T19:30:16.426Z,12.80
2017-09-19T19:32:44.515Z,12.90
2017-09-19T19:35:12.626Z,12.90
2017-09-19T19:37:40.738Z,12.80
2017-09-19T19:40:08.827Z,12.80
2017-09-19T19:42:36.937Z,12.80
2017-09-19T19:45:05.022Z,12.80
2017-09-19T19:47:33.134Z,12.80
2017-09-19T19:50:01.618Z,12.80
2017-09-19T19:52:30.122Z,12.70
2017-09-19T19:54:58.226Z,12.70
2017-09-19T19:57:26.310Z,12.70
2017-09-19T19:59:55.183Z,12.80
2017-09-19T20:02:23.270Z,12.80
2017-09-19T20:04:52.143Z,12.70
2017-09-19T20:07:20.226Z,12.70
2017-09-19T20:09:48.340Z,12.80
2017-09-19T20:12:16.442Z,12.70
2017-09-19T20:14:44.537Z,12.80
2017-09-19T20:17:12.642Z,12.80
2017-09-19T20:19:40.739Z,12.80
2017-09-19T20:22:08.823Z,12.80
2017-09-19T20:24:36.926Z,12.80
2017-09-19T20:27:05.014Z,12.70
2017-09-19T20:29:33.887Z,12.70
2017-09-19T20:32:01.994Z,12.70
2017-09-19T20:34:30.871Z,12.70
2017-09-19T20:36:59.760Z,12.80
2017-09-19T20:39:27.814Z,12.80
2017-09-19T20:41:56.695Z,12.70
2017-09-19T20:44:24.791Z,12.70
2017-09-19T20:46:52.875Z,12.70
2017-09-19T20:49:21.374Z,12.70
2017-09-19T20:51:49.462Z,12.70
2017-09-19T20:54:17.571Z,12.70
2017-09-19T20:56:45.682Z,12.70
2017-09-19T20:59:13.770Z,12.70
2017-09-19T21:01:41.855Z,12.70
2017-09-19T21:04:15.590Z,12.70
2017-09-19T21:06:49.303Z,12.70
2017-09-19T21:09:23.129Z,12.70
2017-09-19T21:11:57.362Z,12.70
2017-09-19T21:14:31.135Z,12.70
2017-09-19T21:17:04.826Z,12.70
2017-09-19T21:19:32.438Z,12.60
2017-09-19T21:22:00.535Z,12.70
2017-09-19T21:24:28.623Z,12.70
2017-09-19T21:26:56.727Z,12.70
2017-09-19T21:29:24.830Z,12.70
2017-09-19T21:31:52.935Z,12.70
2017-09-19T21:34:21.042Z,12.70
2017-09-19T21:36:49.899Z,12.70
2017-09-19T21:39:17.999Z,12.70
2017-09-19T21:41:46.484Z,12.70
2017-09-19T21:44:14.595Z,12.60
2017-09-19T21:46:42.688Z,12.60
2017-09-19T21:49:10.766Z,12.60
2017-09-19T21:51:38.875Z,12.60
2017-09-19T21:54:06.959Z,12.60
2017-09-19T21:56:35.822Z,12.60
2017-09-19T21:59:03.935Z,12.60
2017-09-19T22:01:32.803Z,12.70
2017-09-19T22:04:01.691Z,12.70
2017-09-19T22:06:29.778Z,12.70
2017-09-19T22:08:58.263Z,12.60
2017-09-19T22:11:27.138Z,12.70
2017-09-19T22:13:55.998Z,12.70
2017-09-19T22:16:24.087Z,12.60
2017-09-19T22:18:52.191Z,12.60
2017-09-19T22:21:21.067Z,12.60
2017-09-19T22:23:49.174Z,12.60
2017-09-19T22:26:17.261Z,12.60
2017-09-19T22:28:45.367Z,12.60
2017-09-19T22:31:13.450Z,12.60
2017-09-19T22:33:41.567Z,12.70
2017-09-19T22:36:09.656Z,12.60
2017-09-19T22:38:37.736Z,12.60
2017-09-19T22:41:06.602Z,12.60
2017-09-19T22:43:34.686Z,12.60
2017-09-19T22:46:03.570Z,12.60
2017-09-19T22:48:32.060Z,12.50
2017-09-19T22:51:00.147Z,12.60
2017-09-19T22:53:28.253Z,12.50
2017-09-19T22:55:57.107Z,12.50
2017-09-19T22:58:25.222Z,12.50
2017-09-19T23:00:54.075Z,12.50
2017-09-19T23:03:22.990Z,12.40
2017-09-19T23:05:51.503Z,12.40
2017-09-19T23:08:20.343Z,12.30
2017-09-19T23:10:48.463Z,12.20
2017-09-19T23:13:17.316Z,12.20
2017-09-19T23:15:45.398Z,12.20
2017-09-19T23:18:13.506Z,12.10
2017-09-19T23:20:41.596Z,12.00
2017-09-19T23:23:09.703Z,12.00
2017-09-19T23:25:37.790Z,12.00
2017-09-19T23:28:05.898Z,12.00
2017-09-19T23:30:33.991Z,11.90
2017-09-19T23:33:03.218Z,11.90
2017-09-19T23:35:31.327Z,11.80
2017-09-19T23:40:28.783Z,11.80
2017-09-19T23:42:57.660Z,11.70
2017-09-19T23:45:26.515Z,11.70
2017-09-19T23:47:54.598Z,11.70
2017-09-19T23:50:22.705Z,11.70
2017-09-19T23:52:50.798Z,11.60
2017-09-19T23:55:19.674Z,11.50
2017-09-19T23:57:48.173Z,11.50
